Time;durP1;ratioP1;P1;durP2;ratioP2;P2;SDS_P1;SDS_P2;PMS_P1;PMS_P2;Temp;Humidity;BMP_temperature;BMP_pressure;BME280_temperature;BME280_humidity;BME280_pressure;Samples;Min_cycle;Max_cycle;Signal;HPM_P1;HPM_P2
2021/03/16 00:02:04;;;;;;;;;;;14.50;99.90;;;13.95;66.71;101234.53;5072933;28;19925;-64
2021/03/16 00:04:31;;;;;;;;;;;14.40;99.90;;;13.83;67.10;101237.72;5073103;28;19978;-64
2021/03/16 00:06:58;;;;;;;;;;;14.30;99.90;;;13.77;67.52;101236.19;5072789;28;19986;-64
2021/03/16 00:09:26;;;;;;;;;;;14.20;99.90;;;13.75;67.86;101232.16;5072954;28;19929;-64
2021/03/16 00:11:54;;;;;;;;;;;14.20;99.90;;;13.75;67.63;101230.25;5073268;28;19950;-64
2021/03/16 00:14:21;;;;;;;;;;;14.20;99.90;;;13.72;67.71;101225.44;5072616;28;19928;-64
2021/03/16 00:16:50;;;;;;;;;;;14.20;99.90;;;13.67;68.05;101225.53;5072941;28;20027;-64
2021/03/16 00:19:18;;;;;;;;;;;14.10;99.90;;;13.64;68.14;101226.13;5072947;28;19971;-64
2021/03/16 00:21:45;;;;;;;;;;;14.10;99.90;;;13.63;68.65;101216.38;5072022;28;19933;-64
2021/03/16 00:24:13;;;;;;;;;;;14.10;99.90;;;13.61;68.67;101219.41;5072632;28;19929;-64
2021/03/16 00:26:40;;;;;;;;;;;14.10;99.90;;;13.59;68.97;101218.06;5072364;28;19946;-64
2021/03/16 00:29:08;;;;;;;;;;;14.10;99.90;;;13.57;68.82;101218.38;5072838;28;19925;-64
2021/03/16 00:31:36;;;;;;;;;;;14.00;99.90;;;13.54;69.06;101215.44;5072186;28;19924;-64
2021/03/16 00:34:03;;;;;;;;;;;14.00;99.90;;;13.44;69.45;101213.72;5072278;28;19924;-64
2021/03/16 00:36:30;;;;;;;;;;;13.90;99.90;;;13.36;69.81;101208.97;5072635;28;19930;-64
2021/03/16 00:38:58;;;;;;;;;;;13.90;99.90;;;13.29;70.28;101196.88;5072267;28;19947;-64
2021/03/16 00:41:25;;;;;;;;;;;13.80;99.90;;;13.20;70.94;101201.38;5072450;28;19928;-64
2021/03/16 00:43:52;;;;;;;;;;;13.70;99.90;;;13.14;70.71;101198.75;5072098;28;19932;-64
2021/03/16 00:46:21;;;;;;;;;;;13.60;99.90;;;13.12;70.56;101195.53;5072728;28;19925;-64
2021/03/16 00:48:48;;;;;;;;;;;13.60;99.90;;;13.12;70.30;101197.44;5072212;28;19924;-64
2021/03/16 00:51:15;;;;;;;;;;;13.60;99.90;;;13.04;70.41;101198.09;5071760;28;19931;-64
2021/03/16 00:53:43;;;;;;;;;;;13.50;99.90;;;12.97;70.41;101197.66;5072079;28;19939;-64
2021/03/16 00:56:10;;;;;;;;;;;13.50;99.90;;;12.86;71.38;101191.59;5072401;28;20321;-64
2021/03/16 00:58:37;;;;;;;;;;;13.30;99.90;;;12.90;70.71;101194.50;5072045;28;19982;-64
2021/03/16 01:01:07;;;;;;;;;;;13.30;99.90;;;12.97;70.38;101193.06;5071951;28;19931;-64
2021/03/16 01:03:36;;;;;;;;;;;13.40;99.90;;;13.01;70.65;101193.28;5071948;28;19925;-65
2021/03/16 01:06:04;;;;;;;;;;;13.50;99.90;;;12.88;70.87;101191.31;5072351;28;21691;-64
2021/03/16 01:08:32;;;;;;;;;;;13.20;99.90;;;12.70;72.81;101195.66;5078767;28;20290;-64
2021/03/16 01:10:59;;;;;;;;;;;13.10;99.90;;;12.56;73.98;101192.84;5078706;28;19925;-64
2021/03/16 01:13:26;;;;;;;;;;;12.90;99.90;;;12.51;74.34;101195.66;5078656;28;19925;-64
2021/03/16 01:15:53;;;;;;;;;;;12.90;99.90;;;12.55;74.30;101193.16;5078710;28;19977;-64
2021/03/16 01:18:21;;;;;;;;;;;13.00;99.90;;;12.56;74.35;101181.19;5078591;28;19924;-64
2021/03/16 01:20:49;;;;;;;;;;;13.00;99.90;;;12.57;73.58;101186.34;5078519;28;19978;-64
2021/03/16 01:23:16;;;;;;;;;;;13.00;99.90;;;12.59;73.42;101186.03;5078181;28;19978;-64
2021/03/16 01:25:43;;;;;;;;;;;13.00;99.90;;;12.61;73.35;101190.06;5078747;28;19924;-64
2021/03/16 01:28:10;;;;;;;;;;;13.00;99.90;;;12.64;72.93;101182.47;5078397;28;19977;-64
2021/03/16 01:30:38;;;;;;;;;;;13.00;99.90;;;12.63;73.13;101187.06;5078266;28;19935;-64
2021/03/16 01:33:05;;;;;;;;;;;13.00;99.90;;;12.68;72.77;101186.16;5078309;28;19929;-64
2021/03/16 01:35:32;;;;;;;;;;;13.00;99.90;;;12.66;73.12;101180.25;5078829;28;19947;-64
2021/03/16 01:38:01;;;;;;;;;;;13.00;99.90;;;12.60;72.83;101188.47;5078189;28;19925;-64
2021/03/16 01:40:31;;;;;;;;;;;13.00;99.90;;;12.67;72.51;101188.09;5078250;28;19947;-64
2021/03/16 01:43:12;;;;;;;;;;;13.00;99.90;;;12.67;72.69;101176.44;5078579;28;19924;-64
2021/03/16 01:45:40;;;;;;;;;;;13.10;99.90;;;12.57;73.24;101171.97;5078937;28;19924;-64
2021/03/16 01:48:08;;;;;;;;;;;13.00;99.90;;;12.50;73.60;101183.19;5078260;28;19924;-64
2021/03/16 01:50:35;;;;;;;;;;;13.00;99.90;;;12.47;73.57;101178.34;5078206;28;19978;-64
2021/03/16 01:53:04;;;;;;;;;;;12.90;99.90;;;12.49;73.45;101175.34;5078361;28;19982;-64
2021/03/16 01:55:31;;;;;;;;;;;;;;;12.47;73.70;101177.53;5078382;28;19924;-64
2021/03/16 01:57:59;;;;;;;;;;;12.90;99.90;;;12.46;73.76;101171.28;5078405;28;19924;-64
2021/03/16 02:00:31;;;;;;;;;;;12.90;99.90;;;12.49;73.67;101169.94;5078015;28;19924;-64
2021/03/16 02:02:58;;;;;;;;;;;12.90;99.90;;;12.47;73.25;101178.34;5078919;28;19970;-64
2021/03/16 02:05:26;;;;;;;;;;;12.90;99.90;;;12.42;73.49;101170.28;5078803;28;19924;-64
2021/03/16 02:07:59;;;;;;;;;;;12.90;99.90;;;12.37;74.07;101172.28;5077445;28;19931;-64
2021/03/16 02:10:29;;;;;;;;;;;12.80;99.90;;;12.36;73.82;101171.47;4191549;28;10000321;-64
2021/03/16 02:13:02;;;;;;;;;;;12.80;99.90;;;12.36;73.74;101171.47;5071903;28;19928;-64
2021/03/16 02:15:31;;;;;;;;;;;12.80;99.90;;;12.37;73.69;101162.22;5078148;28;19928;-64
2021/03/16 02:18:03;;;;;;;;;;;12.80;99.90;;;12.43;73.39;101171.09;5076641;28;19928;-64
2021/03/16 02:20:48;;;;;;;;;;;12.80;99.90;;;12.46;73.13;101162.38;5074899;28;19932;-64
2021/03/16 02:23:20;;;;;;;;;;;12.80;99.90;;;12.50;72.76;101157.97;5074889;28;19924;-64
2021/03/16 02:25:59;;;;;;;;;;;12.90;99.90;;;12.51;72.86;101156.88;5075052;28;20362;-64
2021/03/16 02:28:35;;;;;;;;;;;12.90;99.90;;;12.39;73.09;101159.22;5074787;28;19931;-63
2021/03/16 02:31:04;;;;;;;;;;;12.80;99.90;;;12.26;74.12;101158.03;5074637;28;19932;-62
2021/03/16 02:33:36;;;;;;;;;;;12.70;99.90;;;12.18;74.55;101158.69;5074836;28;19978;-64
2021/03/16 02:36:03;;;;;;;;;;;12.70;99.90;;;12.10;74.89;101147.72;5074711;28;19933;-62
2021/03/16 02:38:32;;;;;;;;;;;12.60;99.90;;;12.05;75.35;101151.28;5074696;28;19924;-62
2021/03/16 02:41:00;;;;;;;;;;;12.50;99.90;;;11.98;75.68;101146.22;5074259;28;20370;-62
2021/03/16 02:43:28;;;;;;;;;;;12.50;99.90;;;11.97;76.01;101155.47;5074493;28;19931;-63
2021/03/16 02:45:55;;;;;;;;;;;12.40;99.90;;;11.97;75.84;101152.75;5074469;28;19932;-63
2021/03/16 02:48:25;;;;;;;;;;;12.40;99.90;;;12.01;75.93;101153.75;5074378;28;20294;-63
2021/03/16 02:50:52;;;;;;;;;;;12.40;99.90;;;12.03;76.25;101148.06;5074064;28;19928;-63
2021/03/16 02:53:20;;;;;;;;;;;12.50;99.90;;;12.07;75.48;101152.59;5074187;28;19925;-62
2021/03/16 02:55:47;;;;;;;;;;;12.50;99.90;;;12.04;75.64;101145.03;5074171;28;19924;-63
2021/03/16 02:58:15;;;;;;;;;;;12.50;99.90;;;12.05;75.63;101141.25;5073887;28;19925;-63
2021/03/16 03:00:43;;;;;;;;;;;12.50;99.90;;;12.05;75.54;101143.97;5074097;28;19928;-63
2021/03/16 03:03:11;;;;;;;;;;;12.50;99.90;;;11.96;75.66;101134.88;5074105;28;19990;-63
2021/03/16 03:05:41;;;;;;;;;;;12.40;99.90;;;11.87;76.26;101141.22;5074262;28;20015;-63
2021/03/16 03:08:10;;;;;;;;;;;12.40;99.90;;;11.80;76.33;101133.44;5073671;28;19924;-63
2021/03/16 03:10:37;;;;;;;;;;;12.30;99.90;;;11.72;77.00;101134.09;5073926;28;20352;-62
2021/03/16 03:13:05;;;;;;;;;;;12.20;99.90;;;11.65;77.21;101130.88;5073952;28;19929;-62
2021/03/16 03:15:33;;;;;;;;;;;12.10;99.90;;;11.68;76.96;101141.13;5074204;28;19925;-63
2021/03/16 03:18:01;;;;;;;;;;;;;;;11.67;77.52;101128.72;5073969;28;19935;-62
2021/03/16 03:20:28;;;;;;;;;;;12.10;99.90;;;11.72;77.08;101128.66;5074156;28;20314;-63
2021/03/16 03:23:00;;;;;;;;;;;12.10;99.90;;;11.77;76.84;101131.31;5073803;28;19931;-63
2021/03/16 03:25:29;;;;;;;;;;;12.20;99.90;;;11.81;76.71;101135.06;5073894;28;19931;-63
2021/03/16 03:28:00;;;;;;;;;;;12.20;99.90;;;11.82;76.62;101120.44;5073758;28;20575;-63
2021/03/16 03:30:28;;;;;;;;;;;12.20;99.90;;;11.88;76.21;101116.56;5072340;28;20293;-62
2021/03/16 03:33:00;;;;;;;;;;;12.30;99.90;;;11.91;75.62;101113.25;5073591;28;19974;-62
2021/03/16 03:35:28;;;;;;;;;;;12.30;99.90;;;11.93;75.77;101116.47;5073484;28;20282;-63
2021/03/16 03:37:55;;;;;;;;;;;12.30;99.90;;;11.87;76.02;101106.81;5074250;28;19928;-64
2021/03/16 03:40:24;;;;;;;;;;;12.30;99.90;;;11.95;75.14;101106.16;5073158;28;19935;-63
2021/03/16 03:42:53;;;;;;;;;;;12.40;99.90;;;11.93;75.38;101097.50;5073274;28;19924;-63
2021/03/16 03:45:20;;;;;;;;;;;12.40;99.90;;;11.86;75.90;101097.06;5073217;28;19952;-64
2021/03/16 03:47:48;;;;;;;;;;;12.30;99.90;;;11.82;75.72;101095.22;5073054;28;19925;-63
2021/03/16 03:50:15;;;;;;;;;;;12.30;99.90;;;11.73;76.15;101088.84;5073243;28;20340;-63
2021/03/16 03:52:44;;;;;;;;;;;12.20;99.90;;;11.67;76.67;101109.75;5073155;28;20252;-63
2021/03/16 03:55:12;;;;;;;;;;;12.20;99.90;;;11.62;77.09;101096.25;5072761;28;19932;-63
2021/03/16 03:57:42;;;;;;;;;;;12.00;99.90;;;11.57;77.26;101096.31;5072971;28;19931;-63
2021/03/16 04:00:13;;;;;;;;;;;12.00;99.90;;;11.64;76.80;101091.38;5072939;28;19924;-63
2021/03/16 04:02:41;;;;;;;;;;;12.10;99.90;;;11.79;75.93;101096.63;5072963;28;19924;-63
2021/03/16 04:05:11;;;;;;;;;;;12.20;99.90;;;12.01;74.76;101087.91;5072791;28;19959;-63
2021/03/16 04:07:39;;;;;;;;;;;12.40;99.90;;;12.21;73.41;101081.41;5072770;28;20032;-63
2021/03/16 04:10:08;;;;;;;;;;;12.50;99.90;;;12.36;72.17;101084.69;5073013;28;19978;-63
2021/03/16 04:12:36;;;;;;;;;;;12.70;99.90;;;12.51;71.41;101089.06;5073076;28;19974;-63
2021/03/16 04:15:08;;;;;;;;;;;12.80;99.90;;;12.53;70.78;101081.41;5072910;28;19925;-63
2021/03/16 04:17:36;;;;;;;;;;;12.90;99.90;;;12.50;70.91;101087.44;5072506;28;19935;-63
2021/03/16 04:20:04;;;;;;;;;;;12.90;99.90;;;12.60;70.45;101087.28;5073163;28;20381;-63
2021/03/16 04:22:31;;;;;;;;;;;13.00;99.90;;;12.60;70.45;101090.00;5073084;28;19983;-63
2021/03/16 04:24:59;;;;;;;;;;;13.00;99.90;;;12.49;71.38;101097.47;5073188;28;19924;-63
2021/03/16 04:27:26;;;;;;;;;;;13.00;99.90;;;12.30;72.55;101099.41;5072474;28;19939;-63
2021/03/16 04:29:53;;;;;;;;;;;12.80;99.90;;;12.07;73.67;101096.78;5072898;28;20364;-63
2021/03/16 04:32:22;;;;;;;;;;;12.50;99.90;;;11.79;74.93;101102.03;5072465;28;19932;-63
2021/03/16 04:34:49;;;;;;;;;;;12.30;99.90;;;11.62;75.52;101101.66;5072556;28;19978;-63
2021/03/16 04:37:16;;;;;;;;;;;12.10;99.90;;;11.52;76.67;101104.50;5072279;28;19978;-63
2021/03/16 04:39:44;;;;;;;;;;;12.10;99.90;;;11.42;77.08;101102.72;5072340;28;19929;-63
2021/03/16 04:42:11;;;;;;;;;;;11.90;99.90;;;11.35;77.39;101107.66;5071882;28;19924;-63
2021/03/16 04:44:39;;;;;;;;;;;11.90;99.90;;;11.31;77.72;101105.81;5072432;28;19936;-63
2021/03/16 04:47:06;;;;;;;;;;;11.80;99.90;;;11.30;77.81;101105.03;5072576;28;19932;-62
2021/03/16 04:49:34;;;;;;;;;;;11.80;99.90;;;11.35;78.20;101109.56;5072764;28;19924;-63
2021/03/16 04:52:01;;;;;;;;;;;11.80;99.90;;;11.47;77.22;101109.97;5072539;28;19925;-62
2021/03/16 04:54:29;;;;;;;;;;;11.90;99.90;;;11.54;76.50;101110.44;5072309;28;19932;-63
2021/03/16 04:56:56;;;;;;;;;;;12.00;99.90;;;11.54;76.57;101105.03;5072035;28;20018;-62
2021/03/16 04:59:24;;;;;;;;;;;12.00;99.90;;;11.55;75.82;101113.97;5072487;28;19933;-63
2021/03/16 05:01:51;;;;;;;;;;;12.00;99.90;;;11.53;75.84;101104.22;5072165;28;19968;-62
2021/03/16 05:04:18;;;;;;;;;;;12.00;99.90;;;11.55;75.90;101111.25;5072237;28;19979;-63
2021/03/16 05:06:47;;;;;;;;;;;12.00;99.90;;;11.58;76.06;101113.38;5072058;28;19929;-63
2021/03/16 05:09:14;;;;;;;;;;;12.00;99.90;;;11.62;75.69;101117.91;5072826;28;20282;-63
2021/03/16 05:11:41;;;;;;;;;;;12.10;99.90;;;11.66;75.75;101118.97;5071756;28;20279;-63
2021/03/16 05:14:09;;;;;;;;;;;12.10;99.90;;;11.67;75.89;101111.66;5072156;28;19931;-63
2021/03/16 05:16:36;;;;;;;;;;;12.10;99.90;;;11.71;75.54;101115.41;5072270;28;19928;-62
2021/03/16 05:19:04;;;;;;;;;;;12.10;99.90;;;11.70;75.54;101111.09;5072416;28;20381;-63
2021/03/16 05:21:31;;;;;;;;;;;12.10;99.90;;;11.75;75.21;101113.72;5071607;28;19951;-63
2021/03/16 05:23:59;;;;;;;;;;;12.20;99.90;;;11.75;75.14;101116.44;5071931;28;19925;-63
2021/03/16 05:26:27;;;;;;;;;;;12.20;99.90;;;11.78;74.77;101116.69;5072653;28;19924;-63
2021/03/16 05:28:54;;;;;;;;;;;12.20;99.90;;;11.77;74.87;101116.94;5072473;28;19924;-63
2021/03/16 05:31:21;;;;;;;;;;;12.20;99.90;;;11.76;74.84;101124.28;5071558;28;19924;-63
2021/03/16 05:33:49;;;;;;;;;;;12.20;99.90;;;11.79;74.81;101109.34;5072424;28;19924;-63
2021/03/16 05:36:16;;;;;;;;;;;12.20;99.90;;;11.79;74.44;101112.06;5072216;28;19997;-63
2021/03/16 05:38:44;;;;;;;;;;;12.20;99.90;;;11.75;74.61;101117.25;5072013;28;20413;-63
2021/03/16 05:41:13;;;;;;;;;;;12.20;99.90;;;11.75;74.57;101119.97;5071715;28;19925;-63
2021/03/16 05:43:41;;;;;;;;;;;12.20;99.90;;;11.80;74.27;101113.66;5072158;28;19924;-64
2021/03/16 05:46:10;;;;;;;;;;;12.20;99.90;;;11.84;73.92;101115.50;5071958;28;20340;-62
2021/03/16 05:48:38;;;;;;;;;;;12.20;99.90;;;11.88;73.37;101111.13;5071687;28;20491;-62
2021/03/16 05:51:06;;;;;;;;;;;12.30;99.90;;;11.91;72.87;101118.69;5071483;28;19928;-63
2021/03/16 05:53:33;;;;;;;;;;;12.40;99.90;;;11.97;72.75;101116.72;5072808;28;19982;-62
2021/03/16 05:56:01;;;;;;;;;;;12.40;99.90;;;11.94;72.73;101118.09;5075752;28;19924;-63
2021/03/16 05:58:29;;;;;;;;;;;12.40;99.90;;;11.94;72.63;101107.25;5075419;28;19924;-63
2021/03/16 06:00:57;;;;;;;;;;;12.40;99.90;;;11.95;72.48;101106.16;5075958;28;19947;-62
2021/03/16 06:03:24;;;;;;;;;;;12.40;99.90;;;11.99;72.08;101104.47;5075213;28;19933;-63
2021/03/16 06:05:51;;;;;;;;;;;12.40;99.90;;;11.97;72.27;101111.28;5075542;28;19924;-63
2021/03/16 06:08:19;;;;;;;;;;;12.40;99.90;;;11.91;72.60;101115.97;5074745;28;19929;-63
2021/03/16 06:10:46;;;;;;;;;;;12.40;99.90;;;11.91;72.36;101117.88;5075276;28;19925;-63
2021/03/16 06:13:14;;;;;;;;;;;12.40;99.90;;;11.88;72.67;101118.44;5074807;28;19928;-63
2021/03/16 06:15:43;;;;;;;;;;;12.30;99.90;;;11.83;72.79;101122.03;5075321;28;19925;-63
2021/03/16 06:18:11;;;;;;;;;;;12.30;99.90;;;11.82;72.81;101122.31;5074614;28;19978;-63
2021/03/16 06:20:39;;;;;;;;;;;12.30;99.90;;;11.86;72.71;101124.16;5075263;28;20377;-63
2021/03/16 06:23:08;;;;;;;;;;;12.30;99.90;;;11.90;72.63;101122.47;5075469;28;19931;-63
2021/03/16 06:25:37;;;;;;;;;;;12.40;99.90;;;11.99;72.01;101128.88;5075508;28;19986;-63
2021/03/16 06:28:06;;;;;;;;;;;12.40;99.90;;;12.08;71.55;101118.16;5075072;28;20048;-64
2021/03/16 06:30:34;;;;;;;;;;;12.40;99.90;;;12.16;70.89;101122.16;5074878;28;20374;-63
2021/03/16 06:33:02;;;;;;;;;;;12.50;99.90;;;12.23;70.66;101128.81;5075029;28;19925;-63
2021/03/16 06:35:30;;;;;;;;;;;12.60;99.90;;;12.25;70.49;101123.88;5074859;28;19950;-63
2021/03/16 06:38:04;;;;;;;;;;;12.60;99.90;;;12.30;69.80;101128.44;5074624;28;19928;-63
2021/03/16 06:40:33;;;;;;;;;;;12.70;99.90;;;12.33;69.73;101138.69;5075041;28;19947;-62
2021/03/16 06:43:07;;;;;;;;;;;12.70;99.90;;;12.40;68.83;101129.06;5074479;28;19925;-63
2021/03/16 06:45:36;;;;;;;;;;;12.80;99.90;;;12.45;68.74;101128.22;5075153;28;19968;-63
2021/03/16 06:48:15;;;;;;;;;;;12.90;99.90;;;12.46;68.30;101132.53;5074769;28;19975;-63
2021/03/16 06:50:43;;;;;;;;;;;12.90;99.90;;;12.52;67.95;101134.06;5074307;28;19928;-63
2021/03/16 06:53:14;;;;;;;;;;;12.90;99.90;;;12.58;67.58;101135.63;5074422;28;19960;-62
2021/03/16 06:55:54;;;;;;;;;;;13.00;99.90;;;12.63;67.53;101134.72;5074549;28;20019;-63
2021/03/16 06:58:26;;;;;;;;;;;13.00;99.90;;;12.74;66.99;101130.72;5075250;28;19928;-63
2021/03/16 07:01:04;;;;;;;;;;;13.10;99.90;;;12.73;66.85;101139.97;5074718;28;19924;-62
2021/03/16 07:03:33;;;;;;;;;;;13.10;99.90;;;12.74;66.70;101145.09;5074912;28;19982;-62
2021/03/16 07:06:11;;;;;;;;;;;13.10;99.90;;;12.74;66.82;101149.72;5074794;28;19924;-63
2021/03/16 07:08:39;;;;;;;;;;;13.20;99.90;;;12.75;66.61;101141.28;5073952;28;19973;-63
2021/03/16 07:11:07;;;;;;;;;;;13.20;99.90;;;12.79;65.82;101142.31;5074716;28;19924;-63
2021/03/16 07:13:35;;;;;;;;;;;13.20;99.90;;;12.80;66.41;101148.53;5074335;28;19925;-62
2021/03/16 07:16:02;;;;;;;;;;;13.20;99.90;;;12.82;66.08;101144.44;5075007;28;19924;-62
2021/03/16 07:18:34;;;;;;;;;;;13.20;99.90;;;12.92;66.11;101144.25;5074104;28;19924;-64
2021/03/16 07:21:06;;;;;;;;;;;13.30;99.90;;;13.19;65.35;101146.28;5074235;28;19925;-63
2021/03/16 07:23:39;;;;;;;;;;;13.60;99.90;;;13.56;64.42;101146.09;5074651;28;19924;-64
2021/03/16 07:26:07;;;;;;;;;;;14.10;99.90;;;14.09;62.34;101151.81;5074840;28;20366;-63
2021/03/16 07:28:35;;;;;;;;;;;14.20;99.90;;;14.27;61.66;101149.25;5073856;28;19925;-63
2021/03/16 07:31:02;;;;;;;;;;;14.60;99.90;;;14.55;61.02;101150.81;5074165;28;20389;-63
2021/03/16 07:33:30;;;;;;;;;;;14.70;99.90;;;15.06;59.31;101153.91;5073689;28;19931;-63
2021/03/16 07:35:58;;;;;;;;;;;15.50;99.90;;;15.59;57.17;101147.63;5073508;28;19943;-63
2021/03/16 07:38:26;;;;;;;;;;;16.30;99.90;;;15.99;55.83;101142.94;5073557;28;19931;-63
2021/03/16 07:40:53;;;;;;;;;;;16.30;99.90;;;15.57;56.55;101156.09;5073191;28;19966;-63
2021/03/16 07:43:31;;;;;;;;;;;16.00;99.90;;;14.70;59.22;101145.00;5073468;28;19931;-63
2021/03/16 07:46:08;;;;;;;;;;;15.50;99.90;;;14.48;60.29;101161.31;5073856;28;19974;-63
2021/03/16 07:48:36;;;;;;;;;;;15.30;99.90;;;14.51;60.35;101166.16;5073881;28;19974;-64
2021/03/16 07:51:11;;;;;;;;;;;15.20;99.90;;;14.54;59.71;101166.34;5074149;28;19928;-64
2021/03/16 07:53:40;;;;;;;;;;;15.10;99.90;;;14.37;59.89;101152.59;5074042;28;19939;-62
2021/03/16 07:56:09;;;;;;;;;;;14.90;99.90;;;14.14;61.56;101168.00;5073451;28;19970;-63
2021/03/16 07:58:45;;;;;;;;;;;14.70;99.90;;;14.06;61.55;101170.66;5073502;28;20366;-62
2021/03/16 08:01:13;;;;;;;;;;;14.60;99.90;;;14.09;62.14;101170.84;5073197;28;20400;-63
2021/03/16 08:03:41;;;;;;;;;;;14.60;99.90;;;14.14;61.88;101178.91;5073462;28;19925;-63
2021/03/16 08:06:08;;;;;;;;;;;14.60;99.90;;;14.09;61.32;101180.94;5074086;28;20011;-62
2021/03/16 08:08:41;;;;;;;;;;;14.50;99.90;;;14.06;62.33;101182.34;5073457;28;19932;-62
2021/03/16 08:11:11;;;;;;;;;;;14.50;99.90;;;14.01;62.83;101181.66;5072950;28;19935;-63
2021/03/16 08:13:39;;;;;;;;;;;14.50;99.90;;;14.19;62.73;101184.22;5073297;28;19924;-63
2021/03/16 08:16:13;;;;;;;;;;;14.60;99.90;;;14.37;61.81;101181.72;5072743;28;19925;-62
2021/03/16 08:18:40;;;;;;;;;;;14.70;99.90;;;14.48;61.45;101177.66;5073054;28;19924;-63
2021/03/16 08:21:09;;;;;;;;;;;14.90;99.90;;;14.78;60.67;101179.66;5072689;28;19958;-62
2021/03/16 08:23:37;;;;;;;;;;;15.20;99.90;;;15.12;59.20;101190.78;5073522;28;19924;-65
2021/03/16 08:26:06;;;;;;;;;;;15.40;99.90;;;15.19;58.89;101182.19;5073637;28;20317;-65
2021/03/16 08:28:33;;;;;;;;;;;;;;;15.31;58.87;101191.41;5073806;28;20340;-63
2021/03/16 08:31:01;;;;;;;;;;;15.70;99.90;;;15.41;58.46;101193.03;5073546;28;19925;-63
2021/03/16 08:33:29;;;;;;;;;;;15.80;99.90;;;15.61;58.38;101189.00;5073142;28;19929;-63
2021/03/16 08:35:58;;;;;;;;;;;16.00;99.90;;;15.87;57.22;101189.88;5073103;28;19925;-63
2021/03/16 08:38:26;;;;;;;;;;;16.20;99.90;;;16.03;55.79;101195.72;5072536;28;19935;-62
2021/03/16 08:41:06;;;;;;;;;;;16.40;99.90;;;16.06;56.29;101192.34;5072406;28;19928;-63
2021/03/16 08:43:33;;;;;;;;;;;;;;;16.11;56.88;101192.22;5073000;28;19928;-62
2021/03/16 08:46:01;;;;;;;;;;;16.50;99.90;;;16.31;55.79;101186.16;5073416;28;20447;-63
2021/03/16 08:48:30;;;;;;;;;;;16.80;99.90;;;16.49;55.58;101195.16;5072685;28;19939;-63
2021/03/16 08:50:57;;;;;;;;;;;16.90;99.90;;;16.58;53.72;101194.09;5072942;28;19929;-63
2021/03/16 08:53:25;;;;;;;;;;;17.00;99.90;;;16.54;53.50;101197.72;5073410;28;19928;-63
2021/03/16 08:55:53;;;;;;;;;;;17.00;99.90;;;16.49;54.58;101197.91;5073825;28;19995;-63
2021/03/16 08:58:22;;;;;;;;;;;16.90;99.90;;;16.47;54.68;101203.69;5072542;28;19931;-63
2021/03/16 09:00:50;;;;;;;;;;;16.90;99.90;;;16.29;54.43;101208.28;5072425;28;19925;-63
2021/03/16 09:03:17;;;;;;;;;;;16.80;99.90;;;16.11;54.83;101211.31;5073597;28;19928;-63
2021/03/16 09:05:44;;;;;;;;;;;16.60;99.90;;;16.06;55.57;101201.34;5072798;28;19940;-63
2021/03/16 09:08:11;;;;;;;;;;;16.50;99.90;;;16.15;53.55;101217.72;5073131;28;19924;-62
2021/03/16 09:10:38;;;;;;;;;;;16.50;99.90;;;16.18;54.68;101215.19;5072508;28;19947;-63
2021/03/16 09:13:05;;;;;;;;;;;16.60;99.90;;;16.42;53.90;101217.47;5072961;28;19925;-62
2021/03/16 09:15:34;;;;;;;;;;;17.00;99.90;;;16.70;54.76;101210.63;5072383;28;19928;-63
2021/03/16 09:18:04;;;;;;;;;;;17.00;99.90;;;16.80;53.57;101221.25;5072618;28;19930;-64
2021/03/16 09:20:33;;;;;;;;;;;17.20;99.90;;;16.85;53.50;101220.25;5072774;28;19924;-63
2021/03/16 09:23:02;;;;;;;;;;;17.20;99.90;;;16.82;53.81;101212.72;5073108;28;19924;-63
2021/03/16 09:25:30;;;;;;;;;;;17.20;99.90;;;16.84;53.85;101213.22;5072299;28;19924;-63
2021/03/16 09:28:00;;;;;;;;;;;17.20;99.90;;;16.75;54.13;101213.19;5073457;28;19935;-63
2021/03/16 09:30:29;;;;;;;;;;;17.20;99.90;;;16.74;52.68;101210.78;5076251;28;20018;-63
2021/03/16 09:32:57;;;;;;;;;;;17.20;99.90;;;16.73;52.71;101215.44;5076815;28;19928;-64
2021/03/16 09:35:25;;;;;;;;;;;17.10;99.90;;;16.71;53.85;101214.97;5076305;28;19932;-64
2021/03/16 09:37:53;;;;;;;;;;;17.10;99.90;;;16.73;53.50;101222.84;5076640;28;19924;-64
2021/03/16 09:40:32;;;;;;;;;;;17.20;99.90;;;16.83;52.73;101222.53;5076679;28;19925;-64
2021/03/16 09:43:00;;;;;;;;;;;17.20;99.90;;;16.93;53.38;101216.75;5076787;28;19925;-64
2021/03/16 09:45:28;;;;;;;;;;;17.30;99.90;;;17.08;53.01;101209.97;5076709;28;19982;-64
2021/03/16 09:47:56;;;;;;;;;;;17.40;99.90;;;17.33;53.39;101212.63;5076942;28;19924;-64
2021/03/16 09:50:30;;;;;;;;;;;17.70;99.90;;;17.49;54.31;101218.41;5076658;28;20314;-64
2021/03/16 09:52:59;;;;;;;;;;;18.00;99.90;;;17.77;51.99;101210.59;5076663;28;19928;-64
2021/03/16 09:55:27;;;;;;;;;;;18.20;99.90;;;17.81;51.08;101215.06;5077016;28;19932;-64
2021/03/16 09:57:54;;;;;;;;;;;18.20;99.90;;;17.85;51.56;101207.84;5076212;28;20305;-64
2021/03/16 10:00:24;;;;;;;;;;;18.30;99.90;;;17.98;50.17;101206.00;5075806;28;19925;-64
2021/03/16 10:03:03;;;;;;;;;;;18.40;99.90;;;18.03;50.71;101203.06;5076335;28;19924;-64
2021/03/16 10:05:31;;;;;;;;;;;18.50;99.90;;;18.34;51.00;101209.00;5076277;28;19935;-63
2021/03/16 10:07:58;;;;;;;;;;;18.70;99.90;;;18.27;49.33;101211.47;5076086;28;19925;-64
2021/03/16 10:10:27;;;;;;;;;;;18.70;99.90;;;18.39;49.97;101214.28;5075783;28;20352;-63
2021/03/16 10:12:57;;;;;;;;;;;18.70;99.90;;;18.49;50.02;101194.75;5076311;28;19924;-63
2021/03/16 10:15:27;;;;;;;;;;;18.80;99.90;;;18.64;49.33;101204.31;5076163;28;20378;-63
2021/03/16 10:17:55;;;;;;;;;;;19.00;99.90;;;18.87;48.59;101208.31;5075390;28;19947;-64
2021/03/16 10:20:26;;;;;;;;;;;19.20;99.90;;;18.90;49.05;101204.09;5075496;28;20332;-62
2021/03/16 10:22:55;;;;;;;;;;;19.30;99.90;;;19.16;47.07;101210.13;5075599;28;19932;-64
2021/03/16 10:25:25;;;;;;;;;;;19.50;99.90;;;19.28;47.73;101207.41;5075979;28;19929;-64
2021/03/16 10:28:01;;;;;;;;;;;19.60;99.90;;;19.38;47.37;101196.03;5075642;28;19925;-64
2021/03/16 10:30:30;;;;;;;;;;;19.60;99.90;;;19.62;47.31;101206.28;5075656;28;19928;-64
2021/03/16 10:32:58;;;;;;;;;;;20.00;99.90;;;19.84;46.34;101196.81;5075613;28;19947;-65
2021/03/16 10:35:27;;;;;;;;;;;20.20;99.90;;;19.79;46.24;101197.81;5075802;28;19928;-63
2021/03/16 10:37:55;;;;;;;;;;;;;;;19.90;44.78;101192.69;5075716;28;19980;-63
2021/03/16 10:40:22;;;;;;;;;;;20.70;99.90;;;19.88;45.89;101198.50;5074542;28;19928;-62
2021/03/16 10:42:50;;;;;;;;;;;20.30;99.90;;;20.12;44.40;101200.47;5075035;28;19947;-64
2021/03/16 10:45:19;;;;;;;;;;;20.50;99.90;;;20.29;44.76;101186.50;5074820;28;19929;-64
2021/03/16 10:47:46;;;;;;;;;;;20.60;99.90;;;20.44;47.35;101187.72;5074374;28;19932;-64
2021/03/16 10:50:14;;;;;;;;;;;20.70;99.90;;;20.35;44.45;101179.63;5074644;28;19939;-64
2021/03/16 10:52:42;;;;;;;;;;;20.70;99.90;;;20.19;45.13;101179.50;5075026;28;19999;-65
2021/03/16 10:55:11;;;;;;;;;;;20.60;99.90;;;20.14;43.20;101184.44;5074920;28;19924;-64
2021/03/16 10:57:38;;;;;;;;;;;20.50;99.90;;;20.18;42.32;101174.38;5075182;28;19929;-64
2021/03/16 11:00:08;;;;;;;;;;;20.60;99.90;;;20.22;44.03;101178.00;5074952;28;19925;-64
2021/03/16 11:02:35;;;;;;;;;;;;;;;20.37;42.62;101182.00;5074457;28;20378;-64
2021/03/16 11:05:04;;;;;;;;;;;20.70;99.90;;;20.66;46.37;101177.03;5074843;28;19978;-64
2021/03/16 11:07:31;;;;;;;;;;;21.00;99.90;;;20.97;43.62;101176.34;5074399;28;19924;-64
2021/03/16 11:10:00;;;;;;;;;;;21.20;99.90;;;21.01;39.93;101177.22;5074664;28;19967;-64
2021/03/16 11:12:27;;;;;;;;;;;21.30;99.90;;;20.98;41.57;101171.63;5074387;28;19924;-64
2021/03/16 11:14:54;;;;;;;;;;;21.30;99.90;;;21.03;40.00;101165.88;5074544;28;19935;-64
2021/03/16 11:17:22;;;;;;;;;;;21.40;99.90;;;21.06;43.01;101170.66;5074292;28;19951;-64
2021/03/16 11:19:49;;;;;;;;;;;21.40;99.90;;;21.17;39.86;101153.34;5074675;28;19929;-64